Maloyaroslavets, Russia
Current Conditions -  °F | °C
As of 5:00 AM on Saturday 20 Dec 2014 (Local Time) from UUWW Reporting Station
Light Rain Light Rain  
Wind Chill: 32°   Ceiling: 200
Heat Index: 37°   Visibility: 6mi
Dew Point: 37°   Wind: 7mph
Humidity: 100%   Direction: 180°S
Pressure: 29.38"   Gusts: NA
Location:  55.01°N, 36.47°E
Report Text: UUWW 200200Z 18003MPS 9999 -RA OVC002 03/03 Q0995 24290045NOSIG
Loading
Personal Weather Stations






























Interactive Weather Map New forecast layout! Learn more

10-Day Weather Forecast

Advertisements
Track Severe Weather on mobile